Vremea mâine în Băile Herculane - Romania

Vrei sa afli care e starea vremii acum in Caras-Severin - Romania? Dorim sa iti furnizam starea vremii pentru Caras-Severin - Romania. Starea vremii Caras-Severin - Romania pentru astazi.

Vremea mâine în Băile Herculane

Temperatura minimă:
9.2 °C

Temperatura maximă:
23.6 °C

Mâine va fi: Senin
Precipitații: 0 %
Umiditate: 64%
Viteza maximă vânt mâine:
9 km/h

Evoluția vremii in Băile Herculane pe ore mâine

Ora: 04:00
Temperatura: °C
Sansa de precipitatii: %
Ora Descriere Temp Se simte Precipitatii Umiditate Vant
00:00Senin10.9°10.3°0%78%NNW 6.8 KM/H
01:00Senin10.5°9.8°0%79%NNW 7.2 KM/H
02:00Senin10.2°9.5°0%80%NNW 6.8 KM/H
03:00Senin9.9°9.3°0%80%NNW 6.5 KM/H
04:00Senin9.7°9.2°0%79%NNW 5.8 KM/H
05:00Senin9.5°0%78%N 5.4 KM/H
06:00Senin9.2°8.8°0%78%N 5 KM/H
07:00Senin9.7°9.6°0%77%N 4.7 KM/H
08:00Senin13.6°14.3°0%70%NE 3.2 KM/H
09:00Senin16.1°16.1°0%63%ENE 4.3 KM/H
10:00Senin17.9°17.9°0%59%E 5.8 KM/H
11:00Senin19.4°19.4°0%56%E 7.2 KM/H
12:00Senin20.7°20.7°0%53%ESE 8.6 KM/H
13:00Senin21.8°21.8°0%51%ESE 9 KM/H
14:00Senin22.7°24.6°0%48%SE 9 KM/H
15:00Senin23.3°24.7°0%46%SE 8.6 KM/H
16:00Senin23.6°24.8°0%44%SE 9 KM/H
17:00Senin23.6°24.8°0%44%SE 9 KM/H
18:00Senin23.2°24.7°0%45%SE 9 KM/H
19:00Patchy rain nearby22°24.6°83%57%SE 7.9 KM/H
20:00Patchy rain nearby17.5°17.5°79%65%SE 6.8 KM/H
21:00Senin14.9°15.3°0%70%ESE 5 KM/H
22:00Senin14°14.7°0%70%E 3.6 KM/H
23:00Senin13.2°13.6°0%71%NE 4.3 KM/H




tutorials